CEB635 RPLL-RPVP
Flight info
| Callsign | CEB635 |
|---|---|
| Flight time | 1h 6m |
| Altitude | 36000 |
| Route | BUCAL4V BUCAL M646 NOMYO NOMYO2W |
| Aircraft | A20N/M-SDE2E3FGHIRWXY/LB1 |
Departure
| Time | 2026-04-17 21:18 |
|---|---|
| Airport | Ninoy Aquino International Airport (RPLL) |
Arrival
| Time | 2026-04-17 22:24 |
|---|---|
| Airport | Puerto Princesa International Airport / PAF Antonio Bautista Air Base (RPVP) |
| Time | Latitude | Longitude | Altitude | Speed | Heading |
|---|---|---|---|---|---|
| 2026-04-17 20:52 | 14.52420 | 121.00743 | 82 ft | 0 kts | 44° |
| 2026-04-17 21:02 | 14.52418 | 121.00741 | 82 ft | 2 kts | 44° |
| 2026-04-17 21:03 | 14.52407 | 121.00729 | 82 ft | 2 kts | 44° |
| 2026-04-17 21:03 | 14.52396 | 121.00719 | 82 ft | 2 kts | 44° |
| 2026-04-17 21:03 | 14.52385 | 121.00708 | 82 ft | 2 kts | 44° |
| 2026-04-17 21:03 | 14.52375 | 121.00697 | 82 ft | 2 kts | 44° |
| 2026-04-17 21:04 | 14.52365 | 121.00685 | 82 ft | 2 kts | 69° |
| 2026-04-17 21:04 | 14.52362 | 121.00670 | 82 ft | 2 kts | 89° |
| 2026-04-17 21:04 | 14.52364 | 121.00655 | 82 ft | 2 kts | 110° |
| 2026-04-17 21:04 | 14.52371 | 121.00643 | 82 ft | 0 kts | 131° |
| 2026-04-17 21:05 | 14.52376 | 121.00638 | 82 ft | 1 kts | 136° |
| 2026-04-17 21:05 | 14.52377 | 121.00637 | 82 ft | 0 kts | 135° |
| 2026-04-17 21:09 | 14.52374 | 121.00640 | 82 ft | 1 kts | 135° |
| 2026-04-17 21:09 | 14.52363 | 121.00652 | 82 ft | 4 kts | 135° |
| 2026-04-17 21:09 | 14.52318 | 121.00697 | 82 ft | 13 kts | 135° |
| 2026-04-17 21:10 | 14.52230 | 121.00790 | 82 ft | 22 kts | 134° |
| 2026-04-17 21:10 | 14.52102 | 121.00921 | 82 ft | 27 kts | 135° |
| 2026-04-17 21:10 | 14.51972 | 121.01057 | 82 ft | 25 kts | 134° |
| 2026-04-17 21:10 | 14.51849 | 121.01184 | 82 ft | 24 kts | 134° |
| 2026-04-17 21:11 | 14.51730 | 121.01305 | 82 ft | 23 kts | 135° |
| 2026-04-17 21:11 | 14.51616 | 121.01424 | 82 ft | 22 kts | 134° |
| 2026-04-17 21:11 | 14.51505 | 121.01538 | 82 ft | 22 kts | 134° |
| 2026-04-17 21:11 | 14.51393 | 121.01655 | 82 ft | 22 kts | 135° |
| 2026-04-17 21:12 | 14.51282 | 121.01771 | 82 ft | 22 kts | 133° |
| 2026-04-17 21:12 | 14.51169 | 121.01886 | 82 ft | 22 kts | 134° |
| 2026-04-17 21:12 | 14.51073 | 121.01984 | 82 ft | 14 kts | 148° |
| 2026-04-17 21:12 | 14.51022 | 121.01942 | 82 ft | 11 kts | 233° |
| 2026-04-17 21:13 | 14.50960 | 121.01842 | 82 ft | 21 kts | 240° |
| 2026-04-17 21:13 | 14.50880 | 121.01698 | 82 ft | 23 kts | 240° |
| 2026-04-17 21:13 | 14.50802 | 121.01556 | 82 ft | 22 kts | 240° |
| 2026-04-17 21:13 | 14.50725 | 121.01417 | 82 ft | 21 kts | 241° |
| 2026-04-17 21:14 | 14.50649 | 121.01282 | 82 ft | 22 kts | 240° |
| 2026-04-17 21:14 | 14.50567 | 121.01134 | 82 ft | 25 kts | 240° |
| 2026-04-17 21:14 | 14.50474 | 121.00968 | 82 ft | 27 kts | 240° |
| 2026-04-17 21:14 | 14.50383 | 121.00802 | 82 ft | 25 kts | 240° |
| 2026-04-17 21:15 | 14.50295 | 121.00645 | 82 ft | 24 kts | 240° |
| 2026-04-17 21:15 | 14.50211 | 121.00494 | 82 ft | 23 kts | 240° |
| 2026-04-17 21:15 | 14.50120 | 121.00330 | 82 ft | 27 kts | 239° |
| 2026-04-17 21:15 | 14.50028 | 121.00164 | 82 ft | 26 kts | 240° |
| 2026-04-17 21:16 | 14.49939 | 121.00003 | 82 ft | 25 kts | 240° |
| 2026-04-17 21:16 | 14.49863 | 120.99978 | 82 ft | 0 kts | 159° |
| 2026-04-17 21:16 | 14.49859 | 120.99979 | 82 ft | 4 kts | 158° |
| 2026-04-17 21:16 | 14.49807 | 121.00028 | 82 ft | 12 kts | 104° |
| 2026-04-17 21:17 | 14.49835 | 121.00105 | 82 ft | 9 kts | 60° |
| 2026-04-17 21:17 | 14.49844 | 121.00121 | 82 ft | 0 kts | 60° |
| 2026-04-17 21:17 | 14.49932 | 121.00280 | 82 ft | 62 kts | 60° |
| 2026-04-17 21:18 | 14.50263 | 121.00873 | 83 ft | 126 kts | 59° |
| 2026-04-17 21:18 | 14.50785 | 121.01817 | 200 ft | 165 kts | 60° |
| 2026-04-17 21:18 | 14.51324 | 121.02788 | 951 ft | 152 kts | 60° |
| 2026-04-17 21:18 | 14.51841 | 121.03722 | 1575 ft | 152 kts | 59° |
| 2026-04-17 21:19 | 14.52369 | 121.04669 | 2137 ft | 156 kts | 59° |
| 2026-04-17 21:19 | 14.52911 | 121.05643 | 2729 ft | 157 kts | 59° |
| 2026-04-17 21:19 | 14.53447 | 121.06609 | 3318 ft | 158 kts | 59° |
| 2026-04-17 21:19 | 14.54020 | 121.07621 | 3724 ft | 174 kts | 59° |
| 2026-04-17 21:20 | 14.54655 | 121.08763 | 4147 ft | 190 kts | 59° |
| 2026-04-17 21:20 | 14.55319 | 121.09954 | 4890 ft | 197 kts | 59° |
| 2026-04-17 21:20 | 14.55998 | 121.11207 | 5659 ft | 208 kts | 66° |
| 2026-04-17 21:20 | 14.56167 | 121.12747 | 6304 ft | 227 kts | 95° |
| 2026-04-17 21:21 | 14.55821 | 121.14282 | 7208 ft | 224 kts | 112° |
| 2026-04-17 21:21 | 14.54925 | 121.15608 | 7872 ft | 231 kts | 128° |
| 2026-04-17 21:21 | 14.53850 | 121.16830 | 8587 ft | 233 kts | 130° |
| 2026-04-17 21:21 | 14.52726 | 121.18045 | 9285 ft | 234 kts | 131° |
| 2026-04-17 21:22 | 14.51594 | 121.19237 | 9959 ft | 235 kts | 131° |
| 2026-04-17 21:22 | 14.50434 | 121.20448 | 10559 ft | 239 kts | 131° |
| 2026-04-17 21:22 | 14.49271 | 121.21655 | 11112 ft | 243 kts | 131° |
| 2026-04-17 21:22 | 14.48037 | 121.22890 | 11673 ft | 248 kts | 140° |
| 2026-04-17 21:23 | 14.46472 | 121.23698 | 12244 ft | 257 kts | 165° |
| 2026-04-17 21:23 | 14.44670 | 121.23787 | 12806 ft | 264 kts | 189° |
| 2026-04-17 21:23 | 14.42942 | 121.23106 | 13322 ft | 270 kts | 215° |
| 2026-04-17 21:23 | 14.42149 | 121.22437 | 13609 ft | 271 kts | 226° |
| 2026-04-17 21:24 | 14.41657 | 121.21897 | 13819 ft | 272 kts | 229° |
| 2026-04-17 21:24 | 14.40416 | 121.20428 | 14364 ft | 275 kts | 230° |
| 2026-04-17 21:24 | 14.39179 | 121.18939 | 14883 ft | 278 kts | 230° |
| 2026-04-17 21:24 | 14.37902 | 121.17428 | 15424 ft | 280 kts | 229° |
| 2026-04-17 21:25 | 14.36591 | 121.15901 | 15951 ft | 283 kts | 229° |
| 2026-04-17 21:25 | 14.35278 | 121.14387 | 16452 ft | 285 kts | 229° |
| 2026-04-17 21:25 | 14.33952 | 121.12869 | 16940 ft | 288 kts | 229° |
| 2026-04-17 21:25 | 14.32616 | 121.11340 | 17434 ft | 290 kts | 229° |
| 2026-04-17 21:26 | 14.31256 | 121.09785 | 17946 ft | 292 kts | 229° |
| 2026-04-17 21:26 | 14.29889 | 121.08219 | 18444 ft | 293 kts | 229° |
| 2026-04-17 21:26 | 14.28476 | 121.06700 | 18916 ft | 296 kts | 223° |
| 2026-04-17 21:26 | 14.26902 | 121.05328 | 19386 ft | 298 kts | 216° |
| 2026-04-17 21:27 | 14.25204 | 121.04094 | 19860 ft | 300 kts | 214° |
| 2026-04-17 21:27 | 14.23464 | 121.02877 | 20328 ft | 302 kts | 213° |
| 2026-04-17 21:27 | 14.21727 | 121.01666 | 20793 ft | 304 kts | 213° |
| 2026-04-17 21:27 | 14.19968 | 121.00433 | 21257 ft | 306 kts | 213° |
| 2026-04-17 21:28 | 14.18212 | 120.99199 | 21716 ft | 307 kts | 213° |
| 2026-04-17 21:28 | 14.16460 | 120.97965 | 22165 ft | 309 kts | 213° |
| 2026-04-17 21:28 | 14.14658 | 120.96694 | 22617 ft | 311 kts | 213° |
| 2026-04-17 21:28 | 14.12864 | 120.95431 | 23051 ft | 314 kts | 213° |
| 2026-04-17 21:29 | 14.11064 | 120.94163 | 23462 ft | 317 kts | 213° |
| 2026-04-17 21:29 | 14.09241 | 120.92879 | 23876 ft | 320 kts | 213° |
| 2026-04-17 21:29 | 14.07371 | 120.91562 | 24304 ft | 323 kts | 213° |
| 2026-04-17 21:29 | 14.05522 | 120.90260 | 24723 ft | 327 kts | 214° |
| 2026-04-17 21:30 | 14.03617 | 120.88920 | 25139 ft | 329 kts | 214° |
| 2026-04-17 21:30 | 14.01736 | 120.87597 | 25540 ft | 333 kts | 214° |
| 2026-04-17 21:30 | 13.99812 | 120.86244 | 25940 ft | 336 kts | 214° |
| 2026-04-17 21:30 | 13.97868 | 120.84876 | 26333 ft | 339 kts | 214° |
| 2026-04-17 21:31 | 13.95918 | 120.83503 | 26714 ft | 342 kts | 214° |
| 2026-04-17 21:31 | 13.93947 | 120.82116 | 27098 ft | 345 kts | 214° |
| 2026-04-17 21:31 | 13.91954 | 120.80714 | 27475 ft | 347 kts | 214° |
| 2026-04-17 21:31 | 13.89954 | 120.79308 | 27832 ft | 350 kts | 215° |
| 2026-04-17 21:32 | 13.87920 | 120.77879 | 28183 ft | 353 kts | 215° |
| 2026-04-17 21:32 | 13.85879 | 120.76445 | 28539 ft | 355 kts | 215° |
| 2026-04-17 21:32 | 13.83831 | 120.75005 | 28906 ft | 357 kts | 215° |
| 2026-04-17 21:32 | 13.81785 | 120.73565 | 29256 ft | 359 kts | 214° |
| 2026-04-17 21:33 | 13.79738 | 120.72124 | 29592 ft | 361 kts | 214° |
| 2026-04-17 21:33 | 13.77666 | 120.70667 | 29931 ft | 362 kts | 214° |
| 2026-04-17 21:33 | 13.75549 | 120.69178 | 30259 ft | 364 kts | 214° |
| 2026-04-17 21:33 | 13.73449 | 120.67701 | 30568 ft | 366 kts | 214° |
| 2026-04-17 21:34 | 13.71343 | 120.66220 | 30870 ft | 368 kts | 214° |
| 2026-04-17 21:34 | 13.69251 | 120.64748 | 31160 ft | 369 kts | 214° |
| 2026-04-17 21:34 | 13.64989 | 120.61753 | 31749 ft | 372 kts | 214° |
| 2026-04-17 21:35 | 13.62845 | 120.60249 | 32035 ft | 374 kts | 214° |
| 2026-04-17 21:35 | 13.60640 | 120.58790 | 32313 ft | 375 kts | 210° |
| 2026-04-17 21:35 | 13.58365 | 120.57487 | 32587 ft | 376 kts | 206° |
| 2026-04-17 21:35 | 13.55985 | 120.56304 | 32891 ft | 378 kts | 205° |
| 2026-04-17 21:36 | 13.53607 | 120.55162 | 33179 ft | 379 kts | 205° |
| 2026-04-17 21:36 | 13.51194 | 120.54005 | 33465 ft | 381 kts | 205° |
| 2026-04-17 21:36 | 13.48784 | 120.52848 | 33753 ft | 383 kts | 205° |
| 2026-04-17 21:36 | 13.46381 | 120.51693 | 34028 ft | 384 kts | 205° |
| 2026-04-17 21:37 | 13.43951 | 120.50523 | 34297 ft | 386 kts | 205° |
| 2026-04-17 21:37 | 13.41505 | 120.49345 | 34557 ft | 387 kts | 205° |
| 2026-04-17 21:37 | 13.39059 | 120.48167 | 34809 ft | 389 kts | 205° |
| 2026-04-17 21:37 | 13.36602 | 120.46984 | 35061 ft | 390 kts | 205° |
| 2026-04-17 21:38 | 13.34137 | 120.45799 | 35305 ft | 392 kts | 205° |
| 2026-04-17 21:38 | 13.31671 | 120.44614 | 35538 ft | 393 kts | 205° |
| 2026-04-17 21:38 | 13.29159 | 120.43410 | 35749 ft | 395 kts | 205° |
| 2026-04-17 21:38 | 13.26683 | 120.42225 | 35924 ft | 397 kts | 205° |
| 2026-04-17 21:39 | 13.24128 | 120.41000 | 35929 ft | 404 kts | 205° |
| 2026-04-17 21:39 | 13.18967 | 120.38526 | 35930 ft | 414 kts | 205° |
| 2026-04-17 21:40 | 13.13722 | 120.36010 | 35929 ft | 415 kts | 205° |
| 2026-04-17 21:40 | 13.08507 | 120.33510 | 35927 ft | 415 kts | 205° |
| 2026-04-17 21:41 | 13.03240 | 120.30985 | 35930 ft | 415 kts | 205° |
| 2026-04-17 21:41 | 12.97999 | 120.28472 | 35932 ft | 414 kts | 205° |
| 2026-04-17 21:42 | 12.92779 | 120.25970 | 35927 ft | 414 kts | 204° |
| 2026-04-17 21:42 | 12.87527 | 120.23457 | 35922 ft | 414 kts | 205° |
| 2026-04-17 21:43 | 12.82300 | 120.20956 | 35922 ft | 415 kts | 205° |
| 2026-04-17 21:43 | 12.77071 | 120.18454 | 35919 ft | 414 kts | 205° |
| 2026-04-17 21:44 | 12.71819 | 120.15944 | 35921 ft | 414 kts | 205° |
| 2026-04-17 21:44 | 12.66587 | 120.13442 | 35919 ft | 414 kts | 205° |
| 2026-04-17 21:45 | 12.61369 | 120.10950 | 35916 ft | 413 kts | 205° |
| 2026-04-17 21:45 | 12.56137 | 120.08450 | 35915 ft | 413 kts | 205° |
| 2026-04-17 21:46 | 12.50929 | 120.05965 | 35916 ft | 414 kts | 205° |
| 2026-04-17 21:46 | 12.45698 | 120.03471 | 35921 ft | 413 kts | 205° |
| 2026-04-17 21:47 | 12.40457 | 120.00970 | 35928 ft | 413 kts | 205° |
| 2026-04-17 21:47 | 12.35264 | 119.98495 | 35932 ft | 413 kts | 205° |
| 2026-04-17 21:48 | 12.30047 | 119.96009 | 35932 ft | 413 kts | 205° |
| 2026-04-17 21:48 | 12.24820 | 119.93520 | 35935 ft | 413 kts | 205° |
| 2026-04-17 21:49 | 12.19594 | 119.91032 | 35939 ft | 413 kts | 205° |
| 2026-04-17 21:49 | 12.14357 | 119.88540 | 35936 ft | 413 kts | 205° |
| 2026-04-17 21:50 | 12.09131 | 119.86053 | 35936 ft | 413 kts | 205° |
| 2026-04-17 21:50 | 12.03925 | 119.83577 | 35934 ft | 413 kts | 205° |
| 2026-04-17 21:51 | 11.98704 | 119.81096 | 35936 ft | 413 kts | 205° |
| 2026-04-17 21:51 | 11.93492 | 119.78619 | 35940 ft | 412 kts | 205° |
| 2026-04-17 21:52 | 11.88262 | 119.76135 | 35938 ft | 412 kts | 205° |
| 2026-04-17 21:52 | 11.83067 | 119.73666 | 35935 ft | 412 kts | 205° |
| 2026-04-17 21:53 | 11.77837 | 119.71182 | 35930 ft | 412 kts | 205° |
| 2026-04-17 21:53 | 11.72624 | 119.68708 | 35926 ft | 413 kts | 205° |
| 2026-04-17 21:54 | 11.67386 | 119.66244 | 35920 ft | 413 kts | 205° |
| 2026-04-17 21:54 | 11.62175 | 119.63834 | 35917 ft | 412 kts | 204° |
| 2026-04-17 21:55 | 11.56915 | 119.61399 | 35917 ft | 412 kts | 204° |
| 2026-04-17 21:55 | 11.51703 | 119.58984 | 35917 ft | 412 kts | 205° |
| 2026-04-17 21:56 | 11.46441 | 119.56544 | 35919 ft | 412 kts | 205° |
| 2026-04-17 21:56 | 11.41208 | 119.54118 | 35921 ft | 412 kts | 204° |
| 2026-04-17 21:57 | 11.35965 | 119.51688 | 35923 ft | 412 kts | 204° |
| 2026-04-17 21:57 | 11.30754 | 119.49274 | 35927 ft | 413 kts | 204° |
| 2026-04-17 21:58 | 11.25529 | 119.46854 | 35930 ft | 413 kts | 204° |
| 2026-04-17 21:58 | 11.20265 | 119.44418 | 35929 ft | 413 kts | 204° |
| 2026-04-17 21:59 | 11.15047 | 119.42003 | 35926 ft | 413 kts | 204° |
| 2026-04-17 21:59 | 11.09820 | 119.39585 | 35923 ft | 412 kts | 204° |
| 2026-04-17 22:00 | 11.04575 | 119.37161 | 35920 ft | 413 kts | 204° |
| 2026-04-17 22:00 | 10.99338 | 119.34740 | 35918 ft | 412 kts | 204° |
| 2026-04-17 22:01 | 10.94108 | 119.32323 | 35919 ft | 412 kts | 204° |
| 2026-04-17 22:01 | 10.88860 | 119.29899 | 35919 ft | 413 kts | 204° |
| 2026-04-17 22:02 | 10.83647 | 119.27492 | 35915 ft | 412 kts | 204° |
| 2026-04-17 22:02 | 10.81032 | 119.26285 | 35741 ft | 407 kts | 204° |
| 2026-04-17 22:02 | 10.78471 | 119.25103 | 35269 ft | 405 kts | 204° |
| 2026-04-17 22:02 | 10.75911 | 119.23922 | 34706 ft | 403 kts | 204° |
| 2026-04-17 22:03 | 10.73369 | 119.22749 | 34200 ft | 400 kts | 204° |
| 2026-04-17 22:03 | 10.70847 | 119.21587 | 33714 ft | 397 kts | 204° |
| 2026-04-17 22:03 | 10.68331 | 119.20425 | 33225 ft | 394 kts | 204° |
| 2026-04-17 22:03 | 10.65826 | 119.19271 | 32734 ft | 392 kts | 204° |
| 2026-04-17 22:04 | 10.63336 | 119.18124 | 32290 ft | 389 kts | 204° |
| 2026-04-17 22:04 | 10.60885 | 119.16993 | 31851 ft | 386 kts | 205° |
| 2026-04-17 22:04 | 10.58455 | 119.15873 | 31415 ft | 384 kts | 205° |
| 2026-04-17 22:04 | 10.56030 | 119.14754 | 30978 ft | 381 kts | 205° |
| 2026-04-17 22:05 | 10.53599 | 119.13635 | 30547 ft | 379 kts | 205° |
| 2026-04-17 22:05 | 10.51217 | 119.12537 | 30109 ft | 377 kts | 205° |
| 2026-04-17 22:05 | 10.48829 | 119.11437 | 29669 ft | 375 kts | 205° |
| 2026-04-17 22:05 | 10.46478 | 119.10352 | 29235 ft | 371 kts | 205° |
| 2026-04-17 22:06 | 10.44111 | 119.09261 | 28585 ft | 373 kts | 205° |
| 2026-04-17 22:06 | 10.41768 | 119.08180 | 28163 ft | 371 kts | 205° |
| 2026-04-17 22:06 | 10.39434 | 119.07105 | 27841 ft | 366 kts | 205° |
| 2026-04-17 22:06 | 10.37101 | 119.06031 | 27476 ft | 362 kts | 205° |
| 2026-04-17 22:07 | 10.34858 | 119.04879 | 27064 ft | 360 kts | 211° |
| 2026-04-17 22:07 | 10.32767 | 119.03512 | 26531 ft | 362 kts | 217° |
| 2026-04-17 22:07 | 10.30736 | 119.02002 | 26069 ft | 361 kts | 218° |
| 2026-04-17 22:07 | 10.28711 | 119.00465 | 25678 ft | 359 kts | 217° |
| 2026-04-17 22:08 | 10.26732 | 118.98965 | 25306 ft | 356 kts | 217° |
| 2026-04-17 22:08 | 10.24763 | 118.97478 | 24793 ft | 352 kts | 217° |
| 2026-04-17 22:08 | 10.22796 | 118.95995 | 23809 ft | 359 kts | 217° |
| 2026-04-17 22:08 | 10.20771 | 118.94473 | 22885 ft | 362 kts | 217° |
| 2026-04-17 22:09 | 10.18760 | 118.92963 | 22155 ft | 358 kts | 217° |
| 2026-04-17 22:09 | 10.16782 | 118.91482 | 21478 ft | 354 kts | 217° |
| 2026-04-17 22:09 | 10.14793 | 118.90030 | 20761 ft | 351 kts | 211° |
| 2026-04-17 22:09 | 10.12537 | 118.89180 | 20014 ft | 348 kts | 184° |
| 2026-04-17 22:10 | 10.10171 | 118.89449 | 19333 ft | 340 kts | 159° |
| 2026-04-17 22:10 | 10.08014 | 118.90347 | 18673 ft | 336 kts | 154° |
| 2026-04-17 22:10 | 10.05864 | 118.91260 | 17981 ft | 334 kts | 157° |
| 2026-04-17 22:10 | 10.03697 | 118.92059 | 17314 ft | 331 kts | 159° |
| 2026-04-17 22:11 | 10.01515 | 118.92770 | 16656 ft | 328 kts | 161° |
| 2026-04-17 22:11 | 9.99322 | 118.93441 | 16027 ft | 323 kts | 161° |
| 2026-04-17 22:11 | 9.97207 | 118.94071 | 15418 ft | 318 kts | 162° |
| 2026-04-17 22:11 | 9.95092 | 118.94700 | 14808 ft | 314 kts | 162° |
| 2026-04-17 22:12 | 9.93002 | 118.95322 | 14488 ft | 307 kts | 162° |
| 2026-04-17 22:12 | 9.90960 | 118.95927 | 14306 ft | 297 kts | 162° |
| 2026-04-17 22:12 | 9.89024 | 118.96503 | 14137 ft | 288 kts | 162° |
| 2026-04-17 22:12 | 9.87113 | 118.97073 | 13958 ft | 280 kts | 162° |
| 2026-04-17 22:13 | 9.85237 | 118.97631 | 13688 ft | 277 kts | 161° |
| 2026-04-17 22:13 | 9.83415 | 118.98174 | 13368 ft | 275 kts | 162° |
| 2026-04-17 22:13 | 9.81556 | 118.98727 | 13046 ft | 274 kts | 163° |
| 2026-04-17 22:13 | 9.79677 | 118.98964 | 12685 ft | 276 kts | 189° |
| 2026-04-17 22:14 | 9.77945 | 118.98180 | 12340 ft | 276 kts | 222° |
| 2026-04-17 22:14 | 9.76824 | 118.96634 | 12025 ft | 273 kts | 250° |
| 2026-04-17 22:14 | 9.76532 | 118.94748 | 11686 ft | 269 kts | 278° |
| 2026-04-17 22:14 | 9.77097 | 118.92989 | 11354 ft | 264 kts | 305° |
| 2026-04-17 22:15 | 9.78354 | 118.91687 | 11012 ft | 259 kts | 331° |
| 2026-04-17 22:15 | 9.80027 | 118.91018 | 10687 ft | 256 kts | 346° |
| 2026-04-17 22:15 | 9.81754 | 118.90536 | 10367 ft | 255 kts | 346° |
| 2026-04-17 22:15 | 9.83463 | 118.90050 | 10048 ft | 255 kts | 345° |
| 2026-04-17 22:16 | 9.85173 | 118.89546 | 9729 ft | 254 kts | 345° |
| 2026-04-17 22:16 | 9.86862 | 118.89047 | 9416 ft | 253 kts | 349° |
| 2026-04-17 22:16 | 9.88599 | 118.88996 | 9057 ft | 250 kts | 16° |
| 2026-04-17 22:16 | 9.90128 | 118.89752 | 8724 ft | 246 kts | 42° |
| 2026-04-17 22:17 | 9.91174 | 118.91093 | 8395 ft | 243 kts | 67° |
| 2026-04-17 22:17 | 9.91555 | 118.92741 | 8080 ft | 241 kts | 91° |
| 2026-04-17 22:17 | 9.91223 | 118.94384 | 7768 ft | 240 kts | 115° |
| 2026-04-17 22:17 | 9.90234 | 118.95750 | 7447 ft | 241 kts | 139° |
| 2026-04-17 22:18 | 9.88782 | 118.96572 | 7150 ft | 242 kts | 159° |
| 2026-04-17 22:18 | 9.87163 | 118.97069 | 6867 ft | 241 kts | 162° |
| 2026-04-17 22:18 | 9.85565 | 118.97535 | 6579 ft | 239 kts | 161° |
| 2026-04-17 22:18 | 9.83977 | 118.98003 | 6301 ft | 237 kts | 161° |
| 2026-04-17 22:19 | 9.82376 | 118.98485 | 6010 ft | 236 kts | 161° |
| 2026-04-17 22:19 | 9.80803 | 118.98962 | 5695 ft | 235 kts | 162° |
| 2026-04-17 22:19 | 9.79196 | 118.99241 | 5477 ft | 232 kts | 176° |
| 2026-04-17 22:19 | 9.77605 | 118.99110 | 5283 ft | 229 kts | 186° |
| 2026-04-17 22:20 | 9.76020 | 118.98873 | 4879 ft | 234 kts | 187° |
| 2026-04-17 22:20 | 9.74439 | 118.98413 | 4540 ft | 239 kts | 205° |
| 2026-04-17 22:20 | 9.73192 | 118.97267 | 4056 ft | 249 kts | 243° |
| 2026-04-17 22:20 | 9.72947 | 118.95583 | 3719 ft | 245 kts | 284° |
| 2026-04-17 22:21 | 9.73408 | 118.93977 | 3676 ft | 230 kts | 284° |
| 2026-04-17 22:21 | 9.73611 | 118.92358 | 3399 ft | 231 kts | 273° |
| 2026-04-17 22:21 | 9.73665 | 118.90738 | 3089 ft | 231 kts | 272° |
| 2026-04-17 22:21 | 9.73676 | 118.89106 | 2691 ft | 235 kts | 270° |
| 2026-04-17 22:22 | 9.73700 | 118.87476 | 2230 ft | 230 kts | 271° |
| 2026-04-17 22:22 | 9.73722 | 118.85883 | 1845 ft | 220 kts | 271° |
| 2026-04-17 22:22 | 9.73738 | 118.84347 | 1432 ft | 213 kts | 272° |
| 2026-04-17 22:22 | 9.73818 | 118.82928 | 1040 ft | 205 kts | 278° |
| 2026-04-17 22:23 | 9.73995 | 118.81539 | 738 ft | 192 kts | 276° |
| 2026-04-17 22:23 | 9.74036 | 118.80335 | 800 ft | 154 kts | 266° |
| 2026-04-17 22:23 | 9.74044 | 118.79284 | 587 ft | 146 kts | 273° |
| 2026-04-17 22:23 | 9.74132 | 118.78270 | 395 ft | 141 kts | 268° |
| 2026-04-17 22:24 | 9.74151 | 118.77306 | 167 ft | 133 kts | 270° |
| 2026-04-17 22:24 | 9.74181 | 118.76418 | 76 ft | 112 kts | 274° |
| 2026-04-17 22:24 | 9.74212 | 118.75779 | 76 ft | 74 kts | 272° |
| 2026-04-17 22:24 | 9.74231 | 118.75354 | 76 ft | 46 kts | 272° |
| 2026-04-17 22:25 | 9.74246 | 118.75051 | 76 ft | 40 kts | 272° |
| 2026-04-17 22:25 | 9.74254 | 118.74815 | 76 ft | 28 kts | 272° |
| 2026-04-17 22:25 | 9.74282 | 118.74710 | 76 ft | 12 kts | 331° |
| 2026-04-17 22:25 | 9.74374 | 118.74708 | 76 ft | 13 kts | 10° |
| 2026-04-17 22:26 | 9.74424 | 118.74774 | 76 ft | 13 kts | 88° |
| 2026-04-17 22:26 | 9.74420 | 118.74869 | 76 ft | 13 kts | 92° |
| 2026-04-17 22:26 | 9.74417 | 118.74967 | 76 ft | 14 kts | 92° |
| 2026-04-17 22:26 | 9.74412 | 118.75071 | 76 ft | 14 kts | 92° |
| 2026-04-17 22:27 | 9.74424 | 118.75118 | 76 ft | 3 kts | 14° |
| 2026-04-17 22:27 | 9.74452 | 118.75116 | 76 ft | 4 kts | 356° |
| 2026-04-17 22:27 | 9.74489 | 118.75116 | 76 ft | 4 kts | 1° |
| 2026-04-17 22:27 | 9.74503 | 118.75117 | 76 ft | 0 kts | 2° |